sensor_id;sensor_type;location;lat;lon;timestamp;P1;durP1;ratioP1;P2;durP2;ratioP2
48122;SDS011;33907;47.426;18.906;2023-09-19T00:02:07;17.83;;;6.93;;
48122;SDS011;33907;47.426;18.906;2023-09-19T00:04:43;15.38;;;6.72;;
48122;SDS011;33907;47.426;18.906;2023-09-19T00:07:11;18.45;;;7.68;;
48122;SDS011;33907;47.426;18.906;2023-09-19T00:09:39;13.38;;;7.10;;
48122;SDS011;33907;47.426;18.906;2023-09-19T00:12:07;12.88;;;7.72;;
48122;SDS011;33907;47.426;18.906;2023-09-19T00:14:36;13.82;;;6.87;;
48122;SDS011;33907;47.426;18.906;2023-09-19T00:17:04;13.13;;;7.40;;
48122;SDS011;33907;47.426;18.906;2023-09-19T00:19:44;11.95;;;7.72;;
48122;SDS011;33907;47.426;18.906;2023-09-19T00:22:27;12.25;;;7.28;;
48122;SDS011;33907;47.426;18.906;2023-09-19T00:24:55;14.40;;;7.28;;
48122;SDS011;33907;47.426;18.906;2023-09-19T00:27:23;14.02;;;7.37;;
48122;SDS011;33907;47.426;18.906;2023-09-19T00:29:50;15.30;;;8.85;;
48122;SDS011;33907;47.426;18.906;2023-09-19T00:32:20;12.98;;;8.18;;
48122;SDS011;33907;47.426;18.906;2023-09-19T00:34:48;15.18;;;7.72;;
48122;SDS011;33907;47.426;18.906;2023-09-19T00:37:24;15.65;;;7.32;;
48122;SDS011;33907;47.426;18.906;2023-09-19T00:39:52;12.82;;;8.25;;
48122;SDS011;33907;47.426;18.906;2023-09-19T00:44:55;13.52;;;8.70;;
48122;SDS011;33907;47.426;18.906;2023-09-19T00:47:22;16.02;;;8.23;;
48122;SDS011;33907;47.426;18.906;2023-09-19T00:49:50;12.35;;;8.50;;
48122;SDS011;33907;47.426;18.906;2023-09-19T00:52:18;18.05;;;8.60;;
48122;SDS011;33907;47.426;18.906;2023-09-19T00:55:10;13.88;;;8.90;;
48122;SDS011;33907;47.426;18.906;2023-09-19T00:57:45;13.98;;;8.77;;
48122;SDS011;33907;47.426;18.906;2023-09-19T01:00:17;20.55;;;9.63;;
48122;SDS011;33907;47.426;18.906;2023-09-19T01:02:48;13.90;;;9.10;;
48122;SDS011;33907;47.426;18.906;2023-09-19T01:05:16;20.10;;;9.90;;
48122;SDS011;33907;47.426;18.906;2023-09-19T01:07:57;16.50;;;9.52;;
48122;SDS011;33907;47.426;18.906;2023-09-19T01:10:32;13.50;;;9.35;;
48122;SDS011;33907;47.426;18.906;2023-09-19T01:28:06;16.27;;;9.50;;
48122;SDS011;33907;47.426;18.906;2023-09-19T01:33:18;17.50;;;10.05;;
48122;SDS011;33907;47.426;18.906;2023-09-19T01:35:49;14.10;;;10.05;;
48122;SDS011;33907;47.426;18.906;2023-09-19T01:38:17;15.68;;;10.68;;
48122;SDS011;33907;47.426;18.906;2023-09-19T01:40:56;16.73;;;10.80;;
48122;SDS011;33907;47.426;18.906;2023-09-19T01:43:33;19.25;;;10.27;;
48122;SDS011;33907;47.426;18.906;2023-09-19T01:46:29;13.25;;;9.60;;
48122;SDS011;33907;47.426;18.906;2023-09-19T01:51:52;17.40;;;10.43;;
48122;SDS011;33907;47.426;18.906;2023-09-19T01:54:41;12.10;;;9.98;;
48122;SDS011;33907;47.426;18.906;2023-09-19T01:57:28;14.52;;;10.43;;
48122;SDS011;33907;47.426;18.906;2023-09-19T02:00:07;18.20;;;10.48;;
48122;SDS011;33907;47.426;18.906;2023-09-19T02:02:43;17.05;;;10.80;;
48122;SDS011;33907;47.426;18.906;2023-09-19T02:05:13;17.83;;;11.23;;
48122;SDS011;33907;47.426;18.906;2023-09-19T02:07:41;16.00;;;10.27;;
48122;SDS011;33907;47.426;18.906;2023-09-19T02:10:19;18.98;;;10.85;;
48122;SDS011;33907;47.426;18.906;2023-09-19T02:12:47;16.85;;;11.63;;
48122;SDS011;33907;47.426;18.906;2023-09-19T02:15:27;16.17;;;10.95;;
48122;SDS011;33907;47.426;18.906;2023-09-19T02:17:58;16.33;;;11.30;;
48122;SDS011;33907;47.426;18.906;2023-09-19T02:20:27;13.88;;;10.85;;
48122;SDS011;33907;47.426;18.906;2023-09-19T02:22:54;16.65;;;10.75;;
48122;SDS011;33907;47.426;18.906;2023-09-19T02:25:35;18.05;;;11.07;;
48122;SDS011;33907;47.426;18.906;2023-09-19T02:28:03;16.05;;;11.38;;
48122;SDS011;33907;47.426;18.906;2023-09-19T02:30:31;16.77;;;11.75;;
48122;SDS011;33907;47.426;18.906;2023-09-19T02:33:08;17.12;;;11.65;;
48122;SDS011;33907;47.426;18.906;2023-09-19T02:35:36;15.00;;;10.75;;
48122;SDS011;33907;47.426;18.906;2023-09-19T02:38:04;18.80;;;11.82;;
48122;SDS011;33907;47.426;18.906;2023-09-19T02:40:33;17.95;;;11.45;;
48122;SDS011;33907;47.426;18.906;2023-09-19T02:43:17;18.67;;;11.85;;
48122;SDS011;33907;47.426;18.906;2023-09-19T02:45:45;19.02;;;12.02;;
48122;SDS011;33907;47.426;18.906;2023-09-19T02:48:23;18.17;;;11.80;;
48122;SDS011;33907;47.426;18.906;2023-09-19T02:53:26;16.58;;;12.05;;
48122;SDS011;33907;47.426;18.906;2023-09-19T02:55:54;20.42;;;13.15;;
48122;SDS011;33907;47.426;18.906;2023-09-19T02:58:47;19.55;;;12.30;;
48122;SDS011;33907;47.426;18.906;2023-09-19T03:01:15;16.40;;;11.77;;
48122;SDS011;33907;47.426;18.906;2023-09-19T03:03:43;17.05;;;12.15;;
48122;SDS011;33907;47.426;18.906;2023-09-19T03:06:15;21.55;;;12.65;;
48122;SDS011;33907;47.426;18.906;2023-09-19T03:08:43;13.60;;;11.05;;
48122;SDS011;33907;47.426;18.906;2023-09-19T03:11:17;22.30;;;12.30;;
48122;SDS011;33907;47.426;18.906;2023-09-19T03:13:51;18.77;;;11.40;;
48122;SDS011;33907;47.426;18.906;2023-09-19T03:16:21;15.40;;;12.35;;
48122;SDS011;33907;47.426;18.906;2023-09-19T03:18:50;16.23;;;11.63;;
48122;SDS011;33907;47.426;18.906;2023-09-19T03:21:18;15.65;;;11.38;;
48122;SDS011;33907;47.426;18.906;2023-09-19T03:23:53;20.55;;;12.43;;
48122;SDS011;33907;47.426;18.906;2023-09-19T03:26:30;18.37;;;12.63;;
48122;SDS011;33907;47.426;18.906;2023-09-19T03:28:58;20.58;;;12.27;;
48122;SDS011;33907;47.426;18.906;2023-09-19T03:31:25;18.12;;;11.60;;
48122;SDS011;33907;47.426;18.906;2023-09-19T03:33:57;17.40;;;11.75;;
48122;SDS011;33907;47.426;18.906;2023-09-19T03:36:25;18.10;;;11.48;;
48122;SDS011;33907;47.426;18.906;2023-09-19T03:39:01;19.58;;;12.32;;
48122;SDS011;33907;47.426;18.906;2023-09-19T03:44:10;15.57;;;11.52;;
48122;SDS011;33907;47.426;18.906;2023-09-19T03:46:38;16.80;;;12.73;;
48122;SDS011;33907;47.426;18.906;2023-09-19T03:49:06;17.55;;;11.88;;
48122;SDS011;33907;47.426;18.906;2023-09-19T03:51:33;17.45;;;11.70;;
48122;SDS011;33907;47.426;18.906;2023-09-19T03:54:01;17.83;;;12.23;;
48122;SDS011;33907;47.426;18.906;2023-09-19T03:56:31;17.77;;;11.50;;
48122;SDS011;33907;47.426;18.906;2023-09-19T03:59:03;16.65;;;11.85;;
48122;SDS011;33907;47.426;18.906;2023-09-19T04:01:30;15.73;;;12.23;;
48122;SDS011;33907;47.426;18.906;2023-09-19T04:04:01;14.25;;;11.43;;
48122;SDS011;33907;47.426;18.906;2023-09-19T04:06:41;19.85;;;12.60;;
48122;SDS011;33907;47.426;18.906;2023-09-19T04:09:08;18.77;;;12.10;;
48122;SDS011;33907;47.426;18.906;2023-09-19T04:11:38;17.70;;;12.82;;
48122;SDS011;33907;47.426;18.906;2023-09-19T04:14:05;18.00;;;12.37;;
48122;SDS011;33907;47.426;18.906;2023-09-19T04:16:33;19.55;;;12.73;;
48122;SDS011;33907;47.426;18.906;2023-09-19T04:19:01;19.10;;;12.07;;
48122;SDS011;33907;47.426;18.906;2023-09-19T04:21:28;18.45;;;11.23;;
48122;SDS011;33907;47.426;18.906;2023-09-19T04:23:56;16.08;;;10.45;;
48122;SDS011;33907;47.426;18.906;2023-09-19T04:26:24;16.98;;;7.82;;
48122;SDS011;33907;47.426;18.906;2023-09-19T04:28:53;10.30;;;5.47;;
48122;SDS011;33907;47.426;18.906;2023-09-19T04:31:21;8.90;;;4.37;;
48122;SDS011;33907;47.426;18.906;2023-09-19T04:33:49;8.55;;;4.00;;
48122;SDS011;33907;47.426;18.906;2023-09-19T04:36:16;6.72;;;2.70;;
48122;SDS011;33907;47.426;18.906;2023-09-19T04:39:03;4.70;;;2.03;;
48122;SDS011;33907;47.426;18.906;2023-09-19T04:41:34;6.85;;;2.10;;
48122;SDS011;33907;47.426;18.906;2023-09-19T04:44:02;6.12;;;1.65;;
48122;SDS011;33907;47.426;18.906;2023-09-19T04:46:30;6.05;;;2.15;;
48122;SDS011;33907;47.426;18.906;2023-09-19T04:48:58;5.40;;;1.60;;
48122;SDS011;33907;47.426;18.906;2023-09-19T04:51:26;7.03;;;2.40;;
48122;SDS011;33907;47.426;18.906;2023-09-19T04:53:56;4.53;;;1.42;;
48122;SDS011;33907;47.426;18.906;2023-09-19T04:56:23;5.05;;;1.33;;
48122;SDS011;33907;47.426;18.906;2023-09-19T04:58:51;3.25;;;1.40;;
48122;SDS011;33907;47.426;18.906;2023-09-19T05:01:19;3.90;;;1.60;;
48122;SDS011;33907;47.426;18.906;2023-09-19T05:03:50;3.53;;;1.17;;
48122;SDS011;33907;47.426;18.906;2023-09-19T05:06:21;6.12;;;1.02;;
48122;SDS011;33907;47.426;18.906;2023-09-19T05:08:49;2.20;;;1.12;;
48122;SDS011;33907;47.426;18.906;2023-09-19T05:11:18;4.68;;;1.10;;
48122;SDS011;33907;47.426;18.906;2023-09-19T05:13:47;3.28;;;1.00;;
48122;SDS011;33907;47.426;18.906;2023-09-19T05:16:17;3.33;;;1.00;;
48122;SDS011;33907;47.426;18.906;2023-09-19T05:18:45;3.03;;;1.10;;
48122;SDS011;33907;47.426;18.906;2023-09-19T05:21:13;2.22;;;0.68;;
48122;SDS011;33907;47.426;18.906;2023-09-19T05:23:40;7.03;;;1.08;;
48122;SDS011;33907;47.426;18.906;2023-09-19T05:26:08;2.37;;;0.80;;
48122;SDS011;33907;47.426;18.906;2023-09-19T05:28:38;2.72;;;0.82;;
48122;SDS011;33907;47.426;18.906;2023-09-19T05:31:05;4.72;;;0.90;;
48122;SDS011;33907;47.426;18.906;2023-09-19T05:33:33;4.65;;;1.00;;
48122;SDS011;33907;47.426;18.906;2023-09-19T05:36:00;5.35;;;1.00;;
48122;SDS011;33907;47.426;18.906;2023-09-19T05:38:28;2.37;;;0.80;;
48122;SDS011;33907;47.426;18.906;2023-09-19T05:40:56;2.92;;;0.82;;
48122;SDS011;33907;47.426;18.906;2023-09-19T05:43:24;3.72;;;0.95;;
48122;SDS011;33907;47.426;18.906;2023-09-19T05:45:51;3.95;;;0.88;;
48122;SDS011;33907;47.426;18.906;2023-09-19T05:48:19;3.67;;;1.20;;
48122;SDS011;33907;47.426;18.906;2023-09-19T05:50:48;2.35;;;0.75;;
48122;SDS011;33907;47.426;18.906;2023-09-19T05:53:16;3.45;;;0.90;;
48122;SDS011;33907;47.426;18.906;2023-09-19T05:55:45;3.50;;;1.05;;
48122;SDS011;33907;47.426;18.906;2023-09-19T05:58:13;2.75;;;0.85;;
48122;SDS011;33907;47.426;18.906;2023-09-19T06:00:41;3.00;;;0.80;;
48122;SDS011;33907;47.426;18.906;2023-09-19T06:03:11;2.83;;;1.02;;
48122;SDS011;33907;47.426;18.906;2023-09-19T06:05:39;3.90;;;0.95;;
48122;SDS011;33907;47.426;18.906;2023-09-19T06:08:15;2.78;;;0.85;;
48122;SDS011;33907;47.426;18.906;2023-09-19T06:10:43;2.35;;;0.93;;
48122;SDS011;33907;47.426;18.906;2023-09-19T06:13:10;4.22;;;1.05;;
48122;SDS011;33907;47.426;18.906;2023-09-19T06:15:38;2.55;;;0.93;;
48122;SDS011;33907;47.426;18.906;2023-09-19T06:18:10;2.35;;;0.90;;
48122;SDS011;33907;47.426;18.906;2023-09-19T06:20:41;2.55;;;0.88;;
48122;SDS011;33907;47.426;18.906;2023-09-19T06:23:12;2.62;;;0.90;;
48122;SDS011;33907;47.426;18.906;2023-09-19T06:25:40;3.85;;;1.08;;
48122;SDS011;33907;47.426;18.906;2023-09-19T06:28:08;2.80;;;1.00;;
48122;SDS011;33907;47.426;18.906;2023-09-19T06:30:39;2.70;;;0.93;;
48122;SDS011;33907;47.426;18.906;2023-09-19T06:33:10;3.60;;;1.08;;
48122;SDS011;33907;47.426;18.906;2023-09-19T06:35:42;4.40;;;0.93;;
48122;SDS011;33907;47.426;18.906;2023-09-19T06:38:14;3.22;;;1.00;;
48122;SDS011;33907;47.426;18.906;2023-09-19T06:40:42;2.53;;;0.93;;
48122;SDS011;33907;47.426;18.906;2023-09-19T06:43:10;5.12;;;1.35;;
48122;SDS011;33907;47.426;18.906;2023-09-19T06:45:38;2.67;;;0.90;;
48122;SDS011;33907;47.426;18.906;2023-09-19T06:48:06;2.95;;;0.90;;
48122;SDS011;33907;47.426;18.906;2023-09-19T06:50:34;3.78;;;1.17;;
48122;SDS011;33907;47.426;18.906;2023-09-19T06:53:02;2.60;;;1.20;;
48122;SDS011;33907;47.426;18.906;2023-09-19T06:55:29;2.17;;;1.00;;
48122;SDS011;33907;47.426;18.906;2023-09-19T06:57:59;3.58;;;1.12;;
48122;SDS011;33907;47.426;18.906;2023-09-19T07:00:27;2.00;;;0.88;;
48122;SDS011;33907;47.426;18.906;2023-09-19T07:03:00;2.83;;;1.10;;
48122;SDS011;33907;47.426;18.906;2023-09-19T07:05:36;4.75;;;1.10;;
48122;SDS011;33907;47.426;18.906;2023-09-19T07:08:07;5.10;;;1.17;;
48122;SDS011;33907;47.426;18.906;2023-09-19T07:10:38;2.42;;;1.00;;
48122;SDS011;33907;47.426;18.906;2023-09-19T07:13:16;4.15;;;1.30;;
48122;SDS011;33907;47.426;18.906;2023-09-19T07:15:45;2.28;;;0.95;;
48122;SDS011;33907;47.426;18.906;2023-09-19T07:18:17;2.72;;;1.00;;
48122;SDS011;33907;47.426;18.906;2023-09-19T07:20:45;3.87;;;1.25;;
48122;SDS011;33907;47.426;18.906;2023-09-19T07:25:51;3.37;;;1.20;;
48122;SDS011;33907;47.426;18.906;2023-09-19T07:28:19;3.75;;;1.10;;
48122;SDS011;33907;47.426;18.906;2023-09-19T07:30:52;4.57;;;1.12;;
48122;SDS011;33907;47.426;18.906;2023-09-19T07:33:22;3.03;;;1.23;;
48122;SDS011;33907;47.426;18.906;2023-09-19T07:35:55;3.55;;;1.10;;
48122;SDS011;33907;47.426;18.906;2023-09-19T07:38:24;5.57;;;1.20;;
48122;SDS011;33907;47.426;18.906;2023-09-19T07:40:53;4.32;;;1.15;;
48122;SDS011;33907;47.426;18.906;2023-09-19T07:43:20;3.25;;;1.05;;
48122;SDS011;33907;47.426;18.906;2023-09-19T07:45:49;3.35;;;1.20;;
48122;SDS011;33907;47.426;18.906;2023-09-19T07:48:17;3.60;;;1.35;;
48122;SDS011;33907;47.426;18.906;2023-09-19T07:50:44;5.32;;;1.60;;
48122;SDS011;33907;47.426;18.906;2023-09-19T07:53:12;2.33;;;1.00;;
48122;SDS011;33907;47.426;18.906;2023-09-19T07:55:45;2.75;;;1.20;;
48122;SDS011;33907;47.426;18.906;2023-09-19T07:58:18;3.57;;;1.43;;
48122;SDS011;33907;47.426;18.906;2023-09-19T08:00:46;5.70;;;1.45;;
48122;SDS011;33907;47.426;18.906;2023-09-19T08:03:14;5.07;;;1.20;;
48122;SDS011;33907;47.426;18.906;2023-09-19T08:05:44;3.37;;;1.42;;
48122;SDS011;33907;47.426;18.906;2023-09-19T08:08:14;5.47;;;1.60;;
48122;SDS011;33907;47.426;18.906;2023-09-19T08:10:43;3.78;;;1.50;;
48122;SDS011;33907;47.426;18.906;2023-09-19T08:13:20;5.00;;;1.65;;
48122;SDS011;33907;47.426;18.906;2023-09-19T08:15:49;3.25;;;1.60;;
48122;SDS011;33907;47.426;18.906;2023-09-19T08:18:22;4.07;;;1.40;;
48122;SDS011;33907;47.426;18.906;2023-09-19T08:20:52;4.68;;;1.45;;
48122;SDS011;33907;47.426;18.906;2023-09-19T08:23:20;3.42;;;1.37;;
48122;SDS011;33907;47.426;18.906;2023-09-19T08:25:48;4.82;;;1.85;;
48122;SDS011;33907;47.426;18.906;2023-09-19T08:28:16;4.32;;;1.55;;
48122;SDS011;33907;47.426;18.906;2023-09-19T08:33:21;4.28;;;1.62;;
48122;SDS011;33907;47.426;18.906;2023-09-19T08:35:49;4.68;;;1.70;;
48122;SDS011;33907;47.426;18.906;2023-09-19T08:38:16;2.90;;;1.35;;
48122;SDS011;33907;47.426;18.906;2023-09-19T08:40:44;3.62;;;1.83;;
48122;SDS011;33907;47.426;18.906;2023-09-19T08:43:32;5.15;;;1.58;;
48122;SDS011;33907;47.426;18.906;2023-09-19T08:46:06;5.22;;;2.08;;
48122;SDS011;33907;47.426;18.906;2023-09-19T08:48:37;4.03;;;1.67;;
48122;SDS011;33907;47.426;18.906;2023-09-19T08:51:16;4.70;;;2.10;;
48122;SDS011;33907;47.426;18.906;2023-09-19T08:53:52;6.47;;;2.53;;
48122;SDS011;33907;47.426;18.906;2023-09-19T08:56:29;5.75;;;3.35;;
48122;SDS011;33907;47.426;18.906;2023-09-19T08:59:03;6.43;;;4.03;;
48122;SDS011;33907;47.426;18.906;2023-09-19T09:01:43;6.85;;;4.40;;
48122;SDS011;33907;47.426;18.906;2023-09-19T09:06:50;6.90;;;4.10;;
48122;SDS011;33907;47.426;18.906;2023-09-19T09:09:20;7.50;;;4.87;;
48122;SDS011;33907;47.426;18.906;2023-09-19T09:11:48;8.23;;;5.28;;
48122;SDS011;33907;47.426;18.906;2023-09-19T09:14:25;8.02;;;4.18;;
48122;SDS011;33907;47.426;18.906;2023-09-19T09:16:52;7.93;;;4.62;;
48122;SDS011;33907;47.426;18.906;2023-09-19T09:19:24;8.63;;;4.97;;
48122;SDS011;33907;47.426;18.906;2023-09-19T09:21:52;7.10;;;4.82;;
48122;SDS011;33907;47.426;18.906;2023-09-19T09:24:29;7.03;;;5.25;;
48122;SDS011;33907;47.426;18.906;2023-09-19T09:26:58;7.97;;;5.40;;
48122;SDS011;33907;47.426;18.906;2023-09-19T09:29:46;7.25;;;4.68;;
48122;SDS011;33907;47.426;18.906;2023-09-19T09:32:23;8.10;;;4.55;;
48122;SDS011;33907;47.426;18.906;2023-09-19T09:34:53;8.05;;;5.12;;
48122;SDS011;33907;47.426;18.906;2023-09-19T09:37:30;9.57;;;5.37;;
48122;SDS011;33907;47.426;18.906;2023-09-19T09:39:59;8.30;;;5.57;;
48122;SDS011;33907;47.426;18.906;2023-09-19T09:42:47;9.45;;;6.07;;
48122;SDS011;33907;47.426;18.906;2023-09-19T09:45:23;10.93;;;6.75;;
48122;SDS011;33907;47.426;18.906;2023-09-19T09:48:00;7.50;;;6.15;;
48122;SDS011;33907;47.426;18.906;2023-09-19T09:50:32;10.48;;;6.80;;
48122;SDS011;33907;47.426;18.906;2023-09-19T09:53:28;8.30;;;6.97;;
48122;SDS011;33907;47.426;18.906;2023-09-19T09:56:13;10.75;;;7.25;;
48122;SDS011;33907;47.426;18.906;2023-09-19T09:58:50;11.70;;;7.70;;
48122;SDS011;33907;47.426;18.906;2023-09-19T10:01:23;9.77;;;6.82;;
48122;SDS011;33907;47.426;18.906;2023-09-19T10:04:26;11.60;;;7.57;;
48122;SDS011;33907;47.426;18.906;2023-09-19T10:07:04;11.82;;;6.95;;
48122;SDS011;33907;47.426;18.906;2023-09-19T10:09:45;8.60;;;7.12;;
48122;SDS011;33907;47.426;18.906;2023-09-19T10:12:14;9.80;;;7.30;;
48122;SDS011;33907;47.426;18.906;2023-09-19T10:14:46;7.65;;;6.07;;
48122;SDS011;33907;47.426;18.906;2023-09-19T10:17:14;9.85;;;6.10;;
48122;SDS011;33907;47.426;18.906;2023-09-19T10:19:57;8.48;;;6.57;;
48122;SDS011;33907;47.426;18.906;2023-09-19T10:22:26;7.57;;;6.60;;
48122;SDS011;33907;47.426;18.906;2023-09-19T10:24:54;7.20;;;5.82;;
48122;SDS011;33907;47.426;18.906;2023-09-19T10:27:29;8.65;;;6.25;;
48122;SDS011;33907;47.426;18.906;2023-09-19T10:30:07;7.87;;;5.70;;
48122;SDS011;33907;47.426;18.906;2023-09-19T10:32:39;7.07;;;6.03;;
48122;SDS011;33907;47.426;18.906;2023-09-19T10:35:11;8.70;;;5.65;;
48122;SDS011;33907;47.426;18.906;2023-09-19T10:37:40;7.12;;;5.40;;
48122;SDS011;33907;47.426;18.906;2023-09-19T10:40:08;6.18;;;5.03;;
48122;SDS011;33907;47.426;18.906;2023-09-19T10:42:39;8.98;;;5.25;;
48122;SDS011;33907;47.426;18.906;2023-09-19T10:45:09;7.60;;;5.37;;
48122;SDS011;33907;47.426;18.906;2023-09-19T10:47:40;9.55;;;5.40;;
48122;SDS011;33907;47.426;18.906;2023-09-19T10:50:08;6.40;;;4.55;;
48122;SDS011;33907;47.426;18.906;2023-09-19T10:52:38;6.80;;;4.43;;
48122;SDS011;33907;47.426;18.906;2023-09-19T10:55:15;6.53;;;4.15;;
48122;SDS011;33907;47.426;18.906;2023-09-19T10:57:46;6.97;;;3.53;;
48122;SDS011;33907;47.426;18.906;2023-09-19T11:00:14;7.37;;;4.37;;
48122;SDS011;33907;47.426;18.906;2023-09-19T11:05:40;7.10;;;3.70;;
48122;SDS011;33907;47.426;18.906;2023-09-19T11:08:08;5.65;;;3.10;;
48122;SDS011;33907;47.426;18.906;2023-09-19T11:10:49;5.30;;;3.25;;
48122;SDS011;33907;47.426;18.906;2023-09-19T11:26:49;4.03;;;1.23;;
48122;SDS011;33907;47.426;18.906;2023-09-19T11:29:26;5.40;;;1.23;;
48122;SDS011;33907;47.426;18.906;2023-09-19T11:31:54;5.12;;;1.10;;
48122;SDS011;33907;47.426;18.906;2023-09-19T11:40:27;5.82;;;1.77;;
48122;SDS011;33907;47.426;18.906;2023-09-19T11:42:44;3.87;;;1.73;;
48122;SDS011;33907;47.426;18.906;2023-09-19T11:48:18;4.10;;;1.52;;
48122;SDS011;33907;47.426;18.906;2023-09-19T11:50:46;4.18;;;1.58;;
48122;SDS011;33907;47.426;18.906;2023-09-19T11:53:14;4.15;;;1.70;;
48122;SDS011;33907;47.426;18.906;2023-09-19T11:55:43;3.87;;;1.60;;
48122;SDS011;33907;47.426;18.906;2023-09-19T11:58:12;4.57;;;1.90;;
48122;SDS011;33907;47.426;18.906;2023-09-19T12:00:44;4.50;;;1.70;;
48122;SDS011;33907;47.426;18.906;2023-09-19T12:03:15;7.35;;;1.80;;
48122;SDS011;33907;47.426;18.906;2023-09-19T12:05:45;5.07;;;1.65;;
48122;SDS011;33907;47.426;18.906;2023-09-19T12:08:16;4.75;;;1.75;;
48122;SDS011;33907;47.426;18.906;2023-09-19T12:10:48;3.62;;;1.50;;
48122;SDS011;33907;47.426;18.906;2023-09-19T12:13:17;5.50;;;1.58;;
48122;SDS011;33907;47.426;18.906;2023-09-19T12:15:45;4.68;;;1.73;;
48122;SDS011;33907;47.426;18.906;2023-09-19T12:18:28;5.12;;;1.62;;
48122;SDS011;33907;47.426;18.906;2023-09-19T12:20:57;3.60;;;1.60;;
48122;SDS011;33907;47.426;18.906;2023-09-19T12:23:25;4.10;;;1.65;;
48122;SDS011;33907;47.426;18.906;2023-09-19T12:25:53;3.35;;;1.50;;
48122;SDS011;33907;47.426;18.906;2023-09-19T12:28:38;3.67;;;1.27;;
48122;SDS011;33907;47.426;18.906;2023-09-19T12:31:10;6.53;;;1.62;;
48122;SDS011;33907;47.426;18.906;2023-09-19T12:33:40;5.45;;;1.60;;
48122;SDS011;33907;47.426;18.906;2023-09-19T12:36:19;4.05;;;1.75;;
48122;SDS011;33907;47.426;18.906;2023-09-19T12:38:59;5.00;;;1.55;;
48122;SDS011;33907;47.426;18.906;2023-09-19T12:41:27;3.83;;;1.50;;
48122;SDS011;33907;47.426;18.906;2023-09-19T12:43:54;3.60;;;1.77;;
48122;SDS011;33907;47.426;18.906;2023-09-19T12:46:23;4.57;;;1.40;;
48122;SDS011;33907;47.426;18.906;2023-09-19T12:51:46;4.32;;;1.70;;
48122;SDS011;33907;47.426;18.906;2023-09-19T12:54:14;4.25;;;1.67;;
48122;SDS011;33907;47.426;18.906;2023-09-19T12:56:43;4.12;;;1.58;;
48122;SDS011;33907;47.426;18.906;2023-09-19T12:59:12;4.20;;;1.40;;
48122;SDS011;33907;47.426;18.906;2023-09-19T13:01:41;4.07;;;1.50;;
48122;SDS011;33907;47.426;18.906;2023-09-19T13:06:49;6.82;;;1.90;;
48122;SDS011;33907;47.426;18.906;2023-09-19T13:09:20;4.93;;;1.42;;
48122;SDS011;33907;47.426;18.906;2023-09-19T13:11:49;2.75;;;1.20;;
48122;SDS011;33907;47.426;18.906;2023-09-19T13:14:24;5.32;;;1.77;;
48122;SDS011;33907;47.426;18.906;2023-09-19T13:17:08;3.75;;;1.50;;
48122;SDS011;33907;47.426;18.906;2023-09-19T13:19:50;6.03;;;1.48;;
48122;SDS011;33907;47.426;18.906;2023-09-19T13:22:40;4.93;;;1.55;;
48122;SDS011;33907;47.426;18.906;2023-09-19T13:25:15;4.53;;;1.50;;
48122;SDS011;33907;47.426;18.906;2023-09-19T13:30:19;6.15;;;1.52;;
48122;SDS011;33907;47.426;18.906;2023-09-19T13:32:50;6.80;;;2.35;;
48122;SDS011;33907;47.426;18.906;2023-09-19T13:35:19;4.90;;;1.60;;
48122;SDS011;33907;47.426;18.906;2023-09-19T13:37:47;3.97;;;1.42;;
48122;SDS011;33907;47.426;18.906;2023-09-19T13:40:19;3.87;;;1.35;;
48122;SDS011;33907;47.426;18.906;2023-09-19T13:42:46;3.72;;;1.25;;
48122;SDS011;33907;47.426;18.906;2023-09-19T13:45:14;4.07;;;1.50;;
48122;SDS011;33907;47.426;18.906;2023-09-19T13:47:44;4.57;;;1.65;;
48122;SDS011;33907;47.426;18.906;2023-09-19T13:50:12;4.00;;;1.25;;
48122;SDS011;33907;47.426;18.906;2023-09-19T13:52:39;2.87;;;1.40;;
48122;SDS011;33907;47.426;18.906;2023-09-19T13:55:07;5.30;;;1.75;;
48122;SDS011;33907;47.426;18.906;2023-09-19T13:57:35;3.97;;;1.52;;
48122;SDS011;33907;47.426;18.906;2023-09-19T14:00:03;3.03;;;1.20;;
48122;SDS011;33907;47.426;18.906;2023-09-19T14:02:38;5.40;;;1.70;;
48122;SDS011;33907;47.426;18.906;2023-09-19T14:05:07;4.47;;;1.60;;
48122;SDS011;33907;47.426;18.906;2023-09-19T14:07:34;4.62;;;1.37;;
48122;SDS011;33907;47.426;18.906;2023-09-19T14:10:04;5.03;;;1.50;;
48122;SDS011;33907;47.426;18.906;2023-09-19T14:12:38;6.78;;;1.70;;
48122;SDS011;33907;47.426;18.906;2023-09-19T14:15:10;4.47;;;1.40;;
48122;SDS011;33907;47.426;18.906;2023-09-19T14:17:38;3.80;;;1.40;;
48122;SDS011;33907;47.426;18.906;2023-09-19T14:20:07;4.70;;;1.30;;
48122;SDS011;33907;47.426;18.906;2023-09-19T14:22:37;3.37;;;1.10;;
48122;SDS011;33907;47.426;18.906;2023-09-19T14:25:05;3.75;;;1.30;;
48122;SDS011;33907;47.426;18.906;2023-09-19T14:27:33;3.42;;;1.33;;
48122;SDS011;33907;47.426;18.906;2023-09-19T14:30:01;3.72;;;1.12;;
48122;SDS011;33907;47.426;18.906;2023-09-19T14:32:28;4.50;;;1.55;;
48122;SDS011;33907;47.426;18.906;2023-09-19T14:34:56;5.25;;;1.65;;
48122;SDS011;33907;47.426;18.906;2023-09-19T14:37:23;3.80;;;1.33;;
48122;SDS011;33907;47.426;18.906;2023-09-19T14:39:52;5.47;;;1.42;;
48122;SDS011;33907;47.426;18.906;2023-09-19T14:42:20;3.95;;;1.30;;
48122;SDS011;33907;47.426;18.906;2023-09-19T14:44:48;5.68;;;1.62;;
48122;SDS011;33907;47.426;18.906;2023-09-19T14:47:17;4.12;;;1.55;;
48122;SDS011;33907;47.426;18.906;2023-09-19T14:49:44;5.20;;;1.67;;
48122;SDS011;33907;47.426;18.906;2023-09-19T14:52:12;4.32;;;1.90;;
48122;SDS011;33907;47.426;18.906;2023-09-19T14:54:43;4.93;;;1.67;;
48122;SDS011;33907;47.426;18.906;2023-09-19T14:57:11;4.53;;;1.45;;
48122;SDS011;33907;47.426;18.906;2023-09-19T14:59:40;5.30;;;1.62;;
48122;SDS011;33907;47.426;18.906;2023-09-19T15:02:09;5.55;;;1.27;;
48122;SDS011;33907;47.426;18.906;2023-09-19T15:04:38;4.68;;;1.70;;
48122;SDS011;33907;47.426;18.906;2023-09-19T15:07:08;5.72;;;1.65;;
48122;SDS011;33907;47.426;18.906;2023-09-19T15:09:37;3.25;;;1.40;;
48122;SDS011;33907;47.426;18.906;2023-09-19T15:12:05;5.40;;;1.40;;
48122;SDS011;33907;47.426;18.906;2023-09-19T15:14:33;5.35;;;1.85;;
48122;SDS011;33907;47.426;18.906;2023-09-19T15:17:01;5.20;;;1.60;;
48122;SDS011;33907;47.426;18.906;2023-09-19T15:19:32;5.45;;;1.55;;
48122;SDS011;33907;47.426;18.906;2023-09-19T15:22:01;4.30;;;1.90;;
48122;SDS011;33907;47.426;18.906;2023-09-19T15:24:29;5.50;;;1.95;;
48122;SDS011;33907;47.426;18.906;2023-09-19T15:26:57;4.87;;;1.65;;
48122;SDS011;33907;47.426;18.906;2023-09-19T15:29:25;4.15;;;1.48;;
48122;SDS011;33907;47.426;18.906;2023-09-19T15:31:54;7.10;;;1.83;;
48122;SDS011;33907;47.426;18.906;2023-09-19T15:34:30;3.87;;;1.55;;
48122;SDS011;33907;47.426;18.906;2023-09-19T15:36:59;2.75;;;1.60;;
48122;SDS011;33907;47.426;18.906;2023-09-19T15:39:29;4.32;;;1.35;;
48122;SDS011;33907;47.426;18.906;2023-09-19T15:42:00;5.35;;;1.48;;
48122;SDS011;33907;47.426;18.906;2023-09-19T15:44:28;3.67;;;1.37;;
48122;SDS011;33907;47.426;18.906;2023-09-19T15:46:56;6.62;;;1.60;;
48122;SDS011;33907;47.426;18.906;2023-09-19T15:49:25;4.93;;;1.60;;
48122;SDS011;33907;47.426;18.906;2023-09-19T15:51:53;5.10;;;1.40;;
48122;SDS011;33907;47.426;18.906;2023-09-19T15:54:21;4.87;;;1.60;;
48122;SDS011;33907;47.426;18.906;2023-09-19T15:56:50;4.18;;;1.50;;
48122;SDS011;33907;47.426;18.906;2023-09-19T15:59:19;3.42;;;1.40;;
48122;SDS011;33907;47.426;18.906;2023-09-19T16:01:46;3.75;;;1.40;;